sensor_id;sensor_type;location;lat;lon;timestamp;pressure;altitude;pressure_sealevel;temperature;humidity
59829;BME280;45708;51.848;107.620;2023-07-13T00:03:54;94294.16;;;18.19;63.39
59829;BME280;45708;51.848;107.620;2023-07-13T00:08:55;94325.34;;;18.29;62.58
59829;BME280;45708;51.848;107.620;2023-07-13T00:13:56;94332.22;;;18.35;62.48
59829;BME280;45708;51.848;107.620;2023-07-13T00:18:57;94347.25;;;18.31;62.38
59829;BME280;45708;51.848;107.620;2023-07-13T00:23:58;94341.44;;;18.23;62.09
59829;BME280;45708;51.848;107.620;2023-07-13T00:28:59;94319.06;;;18.14;62.01
59829;BME280;45708;51.848;107.620;2023-07-13T00:34:00;94333.88;;;18.31;62.01
59829;BME280;45708;51.848;107.620;2023-07-13T00:39:02;94344.56;;;18.31;61.54
59829;BME280;45708;51.848;107.620;2023-07-13T00:44:03;94343.53;;;18.27;61.26
59829;BME280;45708;51.848;107.620;2023-07-13T00:49:06;94339.31;;;17.97;60.94
59829;BME280;45708;51.848;107.620;2023-07-13T00:54:12;94360.13;;;18.00;61.51
59829;BME280;45708;51.848;107.620;2023-07-13T00:59:15;94358.00;;;18.26;60.93
59829;BME280;45708;51.848;107.620;2023-07-13T01:04:18;94370.84;;;18.47;60.47
59829;BME280;45708;51.848;107.620;2023-07-13T01:09:20;94380.34;;;18.35;60.31
59829;BME280;45708;51.848;107.620;2023-07-13T01:14:21;94376.88;;;18.10;60.29
59829;BME280;45708;51.848;107.620;2023-07-13T01:19:36;94386.31;;;18.27;60.59
59829;BME280;45708;51.848;107.620;2023-07-13T01:24:39;94406.13;;;18.26;59.63
59829;BME280;45708;51.848;107.620;2023-07-13T01:29:42;94417.56;;;18.02;59.88
59829;BME280;45708;51.848;107.620;2023-07-13T01:34:43;94400.88;;;17.47;61.03
59829;BME280;45708;51.848;107.620;2023-07-13T01:39:44;94423.91;;;17.38;61.98
59829;BME280;45708;51.848;107.620;2023-07-13T01:44:45;94414.69;;;17.15;62.83
59829;BME280;45708;51.848;107.620;2023-07-13T01:49:45;94418.75;;;17.08;63.14
59829;BME280;45708;51.848;107.620;2023-07-13T01:54:46;94425.06;;;17.27;63.21
59829;BME280;45708;51.848;107.620;2023-07-13T01:59:47;94431.63;;;17.84;62.14
59829;BME280;45708;51.848;107.620;2023-07-13T02:04:48;94432.03;;;18.78;60.31
59829;BME280;45708;51.848;107.620;2023-07-13T02:09:49;94441.53;;;19.51;58.36
59829;BME280;45708;51.848;107.620;2023-07-13T02:14:49;94439.16;;;19.68;58.10
59829;BME280;45708;51.848;107.620;2023-07-13T02:19:50;94444.78;;;20.18;57.18
59829;BME280;45708;51.848;107.620;2023-07-13T02:24:51;94423.06;;;22.55;53.17
59829;BME280;45708;51.848;107.620;2023-07-13T02:29:52;94445.88;;;24.32;50.20
59829;BME280;45708;51.848;107.620;2023-07-13T02:34:53;94434.81;;;23.73;51.00
59829;BME280;45708;51.848;107.620;2023-07-13T02:39:54;94443.88;;;23.20;51.61
59829;BME280;45708;51.848;107.620;2023-07-13T02:44:55;94453.13;;;23.36;51.25
59829;BME280;45708;51.848;107.620;2023-07-13T02:49:56;94451.94;;;23.77;50.35
59829;BME280;45708;51.848;107.620;2023-07-13T02:54:57;94453.81;;;24.37;49.24
59829;BME280;45708;51.848;107.620;2023-07-13T02:59:58;94441.47;;;23.84;49.75
59829;BME280;45708;51.848;107.620;2023-07-13T03:05:00;94430.78;;;23.35;50.92
59829;BME280;45708;51.848;107.620;2023-07-13T03:10:01;94436.84;;;24.02;49.74
59829;BME280;45708;51.848;107.620;2023-07-13T03:15:02;94427.75;;;24.41;48.81
59829;BME280;45708;51.848;107.620;2023-07-13T03:20:04;94433.84;;;24.03;49.50
59829;BME280;45708;51.848;107.620;2023-07-13T03:25:05;94376.66;;;22.49;51.33
59829;BME280;45708;51.848;107.620;2023-07-13T03:30:07;94443.78;;;22.23;52.12
59829;BME280;45708;51.848;107.620;2023-07-13T03:35:08;94442.91;;;22.36;51.46
59829;BME280;45708;51.848;107.620;2023-07-13T03:40:10;94446.34;;;23.47;49.28
59829;BME280;45708;51.848;107.620;2023-07-13T03:45:11;94433.97;;;24.79;47.30
59829;BME280;45708;51.848;107.620;2023-07-13T03:50:12;94433.63;;;24.90;46.92
59829;BME280;45708;51.848;107.620;2023-07-13T03:55:13;94429.34;;;24.42;46.88
59829;BME280;45708;51.848;107.620;2023-07-13T04:00:14;94446.47;;;24.54;46.33
59829;BME280;45708;51.848;107.620;2023-07-13T04:05:15;94434.22;;;24.57;45.63
59829;BME280;45708;51.848;107.620;2023-07-13T04:10:15;94435.50;;;24.98;44.89
59829;BME280;45708;51.848;107.620;2023-07-13T04:15:16;94440.13;;;24.42;44.35
59829;BME280;45708;51.848;107.620;2023-07-13T04:20:17;94443.81;;;23.51;45.50
59829;BME280;45708;51.848;107.620;2023-07-13T04:25:19;94446.78;;;22.53;47.08
59829;BME280;45708;51.848;107.620;2023-07-13T04:30:20;94447.97;;;21.71;48.47
59829;BME280;45708;51.848;107.620;2023-07-13T04:35:21;94446.69;;;21.91;48.43
59829;BME280;45708;51.848;107.620;2023-07-13T04:40:22;94434.09;;;22.44;47.27
59829;BME280;45708;51.848;107.620;2023-07-13T04:45:24;94446.25;;;22.11;47.93
59829;BME280;45708;51.848;107.620;2023-07-13T04:50:25;94437.50;;;22.05;47.88
59829;BME280;45708;51.848;107.620;2023-07-13T04:55:26;94437.50;;;22.28;47.36
59829;BME280;45708;51.848;107.620;2023-07-13T05:00:27;94422.34;;;22.71;46.40
59829;BME280;45708;51.848;107.620;2023-07-13T05:05:27;94425.13;;;22.27;46.66
59829;BME280;45708;51.848;107.620;2023-07-13T05:10:28;94429.88;;;21.63;47.13
59829;BME280;45708;51.848;107.620;2023-07-13T05:15:29;94437.88;;;21.76;47.03
59829;BME280;45708;51.848;107.620;2023-07-13T05:20:30;94431.53;;;21.95;46.55
59829;BME280;45708;51.848;107.620;2023-07-13T05:25:31;94417.38;;;22.03;46.81
59829;BME280;45708;51.848;107.620;2023-07-13T05:30:31;94412.69;;;22.79;45.53
59829;BME280;45708;51.848;107.620;2023-07-13T05:35:32;94401.47;;;23.51;44.85
59829;BME280;45708;51.848;107.620;2023-07-13T05:40:33;94412.59;;;23.58;43.69
59829;BME280;45708;51.848;107.620;2023-07-13T05:45:34;94413.31;;;22.76;45.17
59829;BME280;45708;51.848;107.620;2023-07-13T05:50:35;94406.34;;;22.75;45.14
59829;BME280;45708;51.848;107.620;2023-07-13T05:55:35;94414.72;;;22.73;45.21
59829;BME280;45708;51.848;107.620;2023-07-13T06:00:36;94414.50;;;22.92;45.07
59829;BME280;45708;51.848;107.620;2023-07-13T06:05:38;94398.66;;;22.91;44.66
59829;BME280;45708;51.848;107.620;2023-07-13T06:10:39;94406.97;;;22.72;44.41
59829;BME280;45708;51.848;107.620;2023-07-13T06:15:40;94399.34;;;23.05;43.47
59829;BME280;45708;51.848;107.620;2023-07-13T06:20:41;94389.38;;;23.05;42.64
59829;BME280;45708;51.848;107.620;2023-07-13T06:25:43;94394.63;;;22.71;42.82
59829;BME280;45708;51.848;107.620;2023-07-13T06:30:44;94400.72;;;22.54;42.11
59829;BME280;45708;51.848;107.620;2023-07-13T06:35:45;94397.75;;;22.25;41.87
59829;BME280;45708;51.848;107.620;2023-07-13T06:40:46;94397.44;;;22.26;41.51
59829;BME280;45708;51.848;107.620;2023-07-13T06:45:48;94384.78;;;23.15;40.14
59829;BME280;45708;51.848;107.620;2023-07-13T06:50:50;94379.72;;;23.30;40.20
59829;BME280;45708;51.848;107.620;2023-07-13T06:55:50;94383.53;;;23.38;39.51
59829;BME280;45708;51.848;107.620;2023-07-13T07:00:52;94357.84;;;23.06;39.71
59829;BME280;45708;51.848;107.620;2023-07-13T07:05:53;94374.16;;;23.10;39.36
59829;BME280;45708;51.848;107.620;2023-07-13T07:10:53;94366.88;;;23.36;38.78
59829;BME280;45708;51.848;107.620;2023-07-13T07:15:54;94374.50;;;23.34;38.06
59829;BME280;45708;51.848;107.620;2023-07-13T07:20:55;94373.81;;;22.94;38.30
59829;BME280;45708;51.848;107.620;2023-07-13T07:25:56;94363.50;;;22.96;38.48
59829;BME280;45708;51.848;107.620;2023-07-13T07:30:58;94376.03;;;23.00;38.09
59829;BME280;45708;51.848;107.620;2023-07-13T07:35:59;94380.66;;;23.09;37.57
59829;BME280;45708;51.848;107.620;2023-07-13T07:41:03;94378.06;;;22.46;37.83
59829;BME280;45708;51.848;107.620;2023-07-13T07:46:04;94355.50;;;22.73;37.17
59829;BME280;45708;51.848;107.620;2023-07-13T07:51:05;94361.50;;;23.36;36.70
59829;BME280;45708;51.848;107.620;2023-07-13T07:56:06;94365.75;;;23.20;37.00
59829;BME280;45708;51.848;107.620;2023-07-13T08:01:07;94356.28;;;22.74;35.81
59829;BME280;45708;51.848;107.620;2023-07-13T08:06:08;94363.94;;;22.41;36.11
59829;BME280;45708;51.848;107.620;2023-07-13T08:11:08;94366.81;;;22.44;36.27
59829;BME280;45708;51.848;107.620;2023-07-13T08:16:09;94360.91;;;22.34;36.41
59829;BME280;45708;51.848;107.620;2023-07-13T08:21:10;94352.03;;;22.33;36.29
59829;BME280;45708;51.848;107.620;2023-07-13T08:26:11;94357.91;;;22.35;36.32
59829;BME280;45708;51.848;107.620;2023-07-13T08:31:11;94344.09;;;22.76;35.98
59829;BME280;45708;51.848;107.620;2023-07-13T08:36:12;94352.78;;;23.39;34.80
59829;BME280;45708;51.848;107.620;2023-07-13T08:41:17;94349.13;;;23.35;34.84
59829;BME280;45708;51.848;107.620;2023-07-13T08:56:45;94354.22;;;23.28;33.95
59829;BME280;45708;51.848;107.620;2023-07-13T09:12:35;94363.22;;;22.58;34.69
59829;BME280;45708;51.848;107.620;2023-07-13T09:17:48;94357.16;;;22.43;34.78
59829;BME280;45708;51.848;107.620;2023-07-13T09:22:50;94350.59;;;22.67;34.58
59829;BME280;45708;51.848;107.620;2023-07-13T09:27:53;94360.41;;;22.80;34.35
59829;BME280;45708;51.848;107.620;2023-07-13T09:32:55;94366.97;;;22.88;34.28
59829;BME280;45708;51.848;107.620;2023-07-13T09:38:27;94362.06;;;22.98;34.32
59829;BME280;45708;51.848;107.620;2023-07-13T09:43:25;94373.19;;;23.05;34.37
59829;BME280;45708;51.848;107.620;2023-07-13T09:48:34;94376.84;;;23.10;34.38
59829;BME280;45708;51.848;107.620;2023-07-13T09:53:36;94370.31;;;22.93;34.22
59829;BME280;45708;51.848;107.620;2023-07-13T09:58:36;94384.09;;;22.83;34.24
59829;BME280;45708;51.848;107.620;2023-07-13T10:03:38;94392.00;;;22.49;34.93
59829;BME280;45708;51.848;107.620;2023-07-13T10:08:40;94392.16;;;22.21;35.04
59829;BME280;45708;51.848;107.620;2023-07-13T10:13:44;94391.59;;;22.33;34.89
59829;BME280;45708;51.848;107.620;2023-07-13T10:18:51;94384.09;;;22.52;34.70
59829;BME280;45708;51.848;107.620;2023-07-13T10:24:05;94391.13;;;22.70;34.88
59829;BME280;45708;51.848;107.620;2023-07-13T10:29:12;94390.56;;;22.82;34.54
59829;BME280;45708;51.848;107.620;2023-07-13T10:34:14;94394.63;;;22.80;34.11
59829;BME280;45708;51.848;107.620;2023-07-13T10:39:19;94400.97;;;22.75;34.66
59829;BME280;45708;51.848;107.620;2023-07-13T10:44:23;94403.47;;;22.63;36.18
59829;BME280;45708;51.848;107.620;2023-07-13T10:49:27;94399.81;;;22.28;37.99
59829;BME280;45708;51.848;107.620;2023-07-13T10:54:33;94412.69;;;22.08;38.81
59829;BME280;45708;51.848;107.620;2023-07-13T10:59:34;94407.69;;;21.79;40.49
59829;BME280;45708;51.848;107.620;2023-07-13T11:04:45;94403.44;;;21.42;40.50
59829;BME280;45708;51.848;107.620;2023-07-13T11:09:53;94425.59;;;21.25;41.26
59829;BME280;45708;51.848;107.620;2023-07-13T11:25:27;94442.38;;;21.17;40.44
59829;BME280;45708;51.848;107.620;2023-07-13T11:35:30;94439.91;;;21.35;39.58
59829;BME280;45708;51.848;107.620;2023-07-13T11:40:32;94454.41;;;21.47;40.33
59829;BME280;45708;51.848;107.620;2023-07-13T11:45:33;94444.09;;;21.27;42.04
59829;BME280;45708;51.848;107.620;2023-07-13T11:50:34;94446.66;;;21.18;42.70
59829;BME280;45708;51.848;107.620;2023-07-13T11:55:38;94448.59;;;21.04;42.89
59829;BME280;45708;51.848;107.620;2023-07-13T12:00:39;94446.31;;;20.84;43.74
59829;BME280;45708;51.848;107.620;2023-07-13T12:06:04;94454.84;;;20.72;43.49
59829;BME280;45708;51.848;107.620;2023-07-13T12:11:17;94460.78;;;20.55;44.38
59829;BME280;45708;51.848;107.620;2023-07-13T12:16:47;94471.03;;;20.34;44.31
59829;BME280;45708;51.848;107.620;2023-07-13T12:21:49;94473.19;;;20.19;45.88
59829;BME280;45708;51.848;107.620;2023-07-13T12:26:54;94479.31;;;20.05;46.13
59829;BME280;45708;51.848;107.620;2023-07-13T12:31:55;94483.25;;;19.94;46.74
59829;BME280;45708;51.848;107.620;2023-07-13T12:36:59;94481.88;;;19.78;46.86
59829;BME280;45708;51.848;107.620;2023-07-13T12:42:24;94488.63;;;19.57;46.63
59829;BME280;45708;51.848;107.620;2023-07-13T12:47:26;94492.03;;;19.38;48.03
59829;BME280;45708;51.848;107.620;2023-07-13T12:52:31;94494.41;;;19.21;48.21
59829;BME280;45708;51.848;107.620;2023-07-13T12:57:32;94496.19;;;19.07;48.68
59829;BME280;45708;51.848;107.620;2023-07-13T13:02:38;94490.56;;;18.84;49.10
59829;BME280;45708;51.848;107.620;2023-07-13T13:07:39;94494.44;;;18.73;49.73
59829;BME280;45708;51.848;107.620;2023-07-13T13:12:40;94502.06;;;18.56;49.98
59829;BME280;45708;51.848;107.620;2023-07-13T13:17:41;94512.66;;;18.42;50.23
59829;BME280;45708;51.848;107.620;2023-07-13T13:22:42;94516.31;;;18.17;50.79
59829;BME280;45708;51.848;107.620;2023-07-13T13:27:44;94511.94;;;17.98;51.12
59829;BME280;45708;51.848;107.620;2023-07-13T13:32:47;94512.56;;;17.84;51.34
59829;BME280;45708;51.848;107.620;2023-07-13T13:37:48;94513.16;;;17.76;51.74
59829;BME280;45708;51.848;107.620;2023-07-13T13:42:49;94503.88;;;17.58;52.09
59829;BME280;45708;51.848;107.620;2023-07-13T13:47:50;94516.75;;;17.51;52.30
59829;BME280;45708;51.848;107.620;2023-07-13T13:52:50;94523.19;;;17.45;52.54
59829;BME280;45708;51.848;107.620;2023-07-13T13:57:51;94518.41;;;17.37;52.79
59829;BME280;45708;51.848;107.620;2023-07-13T14:02:52;94517.94;;;17.30;52.85
59829;BME280;45708;51.848;107.620;2023-07-13T14:07:54;94509.44;;;17.18;52.97
59829;BME280;45708;51.848;107.620;2023-07-13T14:12:56;94520.09;;;17.18;53.26
59829;BME280;45708;51.848;107.620;2023-07-13T14:17:57;94522.84;;;17.08;53.74
59829;BME280;45708;51.848;107.620;2023-07-13T14:22:58;94520.22;;;16.87;53.76
59829;BME280;45708;51.848;107.620;2023-07-13T14:27:59;94526.94;;;16.75;54.31
59829;BME280;45708;51.848;107.620;2023-07-13T14:33:00;94516.00;;;16.71;54.13
59829;BME280;45708;51.848;107.620;2023-07-13T14:38:01;94514.38;;;16.60;54.28
59829;BME280;45708;51.848;107.620;2023-07-13T14:43:02;94518.69;;;16.51;54.77
59829;BME280;45708;51.848;107.620;2023-07-13T14:48:05;94510.97;;;16.39;54.72
59829;BME280;45708;51.848;107.620;2023-07-13T14:53:09;94524.59;;;16.27;54.68
59829;BME280;45708;51.848;107.620;2023-07-13T14:58:15;94541.38;;;16.23;54.88
59829;BME280;45708;51.848;107.620;2023-07-13T15:03:24;94544.31;;;16.11;54.92
59829;BME280;45708;51.848;107.620;2023-07-13T15:08:25;94539.75;;;15.91;56.15
59829;BME280;45708;51.848;107.620;2023-07-13T15:13:26;94522.97;;;15.70;56.42
59829;BME280;45708;51.848;107.620;2023-07-13T15:18:28;94519.50;;;15.70;56.44
59829;BME280;45708;51.848;107.620;2023-07-13T15:23:29;94523.41;;;15.57;57.23
59829;BME280;45708;51.848;107.620;2023-07-13T15:28:30;94527.16;;;15.46;56.85
59829;BME280;45708;51.848;107.620;2023-07-13T15:33:31;94526.31;;;15.35;57.18
59829;BME280;45708;51.848;107.620;2023-07-13T15:38:31;94524.38;;;15.20;57.85
59829;BME280;45708;51.848;107.620;2023-07-13T15:43:33;94527.53;;;15.02;58.28
59829;BME280;45708;51.848;107.620;2023-07-13T15:48:33;94527.19;;;14.88;58.49
59829;BME280;45708;51.848;107.620;2023-07-13T15:53:35;94534.91;;;14.90;58.73
59829;BME280;45708;51.848;107.620;2023-07-13T15:58:38;94529.06;;;14.93;59.07
59829;BME280;45708;51.848;107.620;2023-07-13T16:03:39;94535.16;;;14.83;59.31
59829;BME280;45708;51.848;107.620;2023-07-13T16:08:41;94527.34;;;14.67;59.62
59829;BME280;45708;51.848;107.620;2023-07-13T16:13:43;94532.00;;;14.44;60.29
59829;BME280;45708;51.848;107.620;2023-07-13T16:18:44;94536.63;;;14.27;60.95
59829;BME280;45708;51.848;107.620;2023-07-13T16:23:45;94540.56;;;14.19;61.19
59829;BME280;45708;51.848;107.620;2023-07-13T16:28:46;94533.63;;;14.18;61.21
59829;BME280;45708;51.848;107.620;2023-07-13T16:33:46;94531.84;;;14.24;61.62
59829;BME280;45708;51.848;107.620;2023-07-13T16:38:47;94536.41;;;14.34;61.50
59829;BME280;45708;51.848;107.620;2023-07-13T16:43:48;94544.06;;;14.25;61.65
59829;BME280;45708;51.848;107.620;2023-07-13T16:48:49;94540.78;;;14.13;61.88
59829;BME280;45708;51.848;107.620;2023-07-13T16:53:50;94536.47;;;14.07;62.34
59829;BME280;45708;51.848;107.620;2023-07-13T16:58:52;94526.78;;;13.90;62.67
59829;BME280;45708;51.848;107.620;2023-07-13T17:03:52;94542.06;;;13.78;63.06
59829;BME280;45708;51.848;107.620;2023-07-13T17:08:53;94545.03;;;13.55;63.43
59829;BME280;45708;51.848;107.620;2023-07-13T17:13:54;94540.16;;;13.42;63.73
59829;BME280;45708;51.848;107.620;2023-07-13T17:18:55;94542.53;;;13.43;63.45
59829;BME280;45708;51.848;107.620;2023-07-13T17:23:56;94540.22;;;13.52;63.73
59829;BME280;45708;51.848;107.620;2023-07-13T17:28:57;94550.63;;;13.58;63.67
59829;BME280;45708;51.848;107.620;2023-07-13T17:33:58;94533.91;;;13.58;63.75
59829;BME280;45708;51.848;107.620;2023-07-13T17:39:00;94546.53;;;13.46;63.85
59829;BME280;45708;51.848;107.620;2023-07-13T17:44:01;94560.63;;;13.24;64.54
59829;BME280;45708;51.848;107.620;2023-07-13T17:49:03;94562.53;;;13.07;64.48
59829;BME280;45708;51.848;107.620;2023-07-13T17:54:12;94555.91;;;12.88;64.42
59829;BME280;45708;51.848;107.620;2023-07-13T17:59:14;94565.53;;;12.94;64.81
59829;BME280;45708;51.848;107.620;2023-07-13T18:04:17;94550.06;;;12.86;64.98
59829;BME280;45708;51.848;107.620;2023-07-13T18:09:22;94554.81;;;12.84;65.64
59829;BME280;45708;51.848;107.620;2023-07-13T18:14:23;94562.81;;;12.89;65.30
59829;BME280;45708;51.848;107.620;2023-07-13T18:19:39;94547.16;;;12.87;64.64
59829;BME280;45708;51.848;107.620;2023-07-13T18:24:41;94552.81;;;12.74;65.49
59829;BME280;45708;51.848;107.620;2023-07-13T18:29:42;94539.19;;;12.65;65.85
59829;BME280;45708;51.848;107.620;2023-07-13T18:34:42;94524.19;;;12.54;66.03
59829;BME280;45708;51.848;107.620;2023-07-13T18:39:44;94515.38;;;12.48;66.12
59829;BME280;45708;51.848;107.620;2023-07-13T18:44:45;94504.38;;;12.40;66.78
59829;BME280;45708;51.848;107.620;2023-07-13T18:49:46;94510.06;;;12.27;67.16
59829;BME280;45708;51.848;107.620;2023-07-13T18:54:47;94495.22;;;12.26;67.26
59829;BME280;45708;51.848;107.620;2023-07-13T18:59:48;94495.53;;;12.12;67.37
59829;BME280;45708;51.848;107.620;2023-07-13T19:04:49;94498.25;;;12.17;67.65
59829;BME280;45708;51.848;107.620;2023-07-13T19:09:54;94500.66;;;12.19;67.38
59829;BME280;45708;51.848;107.620;2023-07-13T19:14:55;94502.75;;;12.17;67.28
59829;BME280;45708;51.848;107.620;2023-07-13T19:19:55;94507.78;;;12.18;67.21
59829;BME280;45708;51.848;107.620;2023-07-13T19:24:56;94503.47;;;12.12;67.62
59829;BME280;45708;51.848;107.620;2023-07-13T19:29:57;94508.69;;;12.07;67.64
59829;BME280;45708;51.848;107.620;2023-07-13T19:34:58;94510.13;;;11.98;68.18
59829;BME280;45708;51.848;107.620;2023-07-13T19:39:58;94517.53;;;11.96;68.04
59829;BME280;45708;51.848;107.620;2023-07-13T19:44:59;94523.28;;;11.93;68.15
59829;BME280;45708;51.848;107.620;2023-07-13T19:50:00;94528.44;;;11.83;68.57
59829;BME280;45708;51.848;107.620;2023-07-13T19:55:04;94524.41;;;11.80;68.24
59829;BME280;45708;51.848;107.620;2023-07-13T20:00:29;94534.28;;;11.85;67.79
59829;BME280;45708;51.848;107.620;2023-07-13T20:05:29;94537.19;;;11.83;68.37
59829;BME280;45708;51.848;107.620;2023-07-13T20:10:31;94553.16;;;11.77;69.19
59829;BME280;45708;51.848;107.620;2023-07-13T20:15:32;94552.25;;;11.54;68.81
59829;BME280;45708;51.848;107.620;2023-07-13T20:20:36;94562.53;;;11.39;69.61
59829;BME280;45708;51.848;107.620;2023-07-13T20:25:37;94576.44;;;11.46;69.88
59829;BME280;45708;51.848;107.620;2023-07-13T20:30:41;94563.13;;;11.41;69.64
59829;BME280;45708;51.848;107.620;2023-07-13T20:35:43;94559.91;;;11.39;69.82
59829;BME280;45708;51.848;107.620;2023-07-13T20:40:46;94556.69;;;11.37;69.75
59829;BME280;45708;51.848;107.620;2023-07-13T20:45:55;94560.19;;;11.26;70.13
59829;BME280;45708;51.848;107.620;2023-07-13T20:50:58;94566.41;;;11.20;70.56
59829;BME280;45708;51.848;107.620;2023-07-13T20:56:00;94562.59;;;11.27;70.87
59829;BME280;45708;51.848;107.620;2023-07-13T21:01:00;94560.19;;;11.26;70.38
59829;BME280;45708;51.848;107.620;2023-07-13T21:06:10;94566.16;;;11.33;70.39
59829;BME280;45708;51.848;107.620;2023-07-13T21:11:12;94572.00;;;11.35;70.76
59829;BME280;45708;51.848;107.620;2023-07-13T21:16:17;94578.66;;;11.38;70.91
59829;BME280;45708;51.848;107.620;2023-07-13T21:21:21;94552.13;;;11.33;71.09
59829;BME280;45708;51.848;107.620;2023-07-13T21:26:22;94574.22;;;11.55;71.42
59829;BME280;45708;51.848;107.620;2023-07-13T21:31:26;94567.66;;;11.57;71.25
59829;BME280;45708;51.848;107.620;2023-07-13T21:36:28;94566.34;;;11.60;71.49
59829;BME280;45708;51.848;107.620;2023-07-13T21:41:34;94563.50;;;11.62;71.31
59829;BME280;45708;51.848;107.620;2023-07-13T21:46:35;94574.88;;;11.62;71.55
59829;BME280;45708;51.848;107.620;2023-07-13T21:51:38;94562.63;;;11.73;71.49
59829;BME280;45708;51.848;107.620;2023-07-13T21:56:38;94569.03;;;11.88;70.87
59829;BME280;45708;51.848;107.620;2023-07-13T22:01:39;94550.81;;;11.92;71.00
59829;BME280;45708;51.848;107.620;2023-07-13T22:06:40;94564.38;;;12.12;70.55
59829;BME280;45708;51.848;107.620;2023-07-13T22:11:41;94531.97;;;12.22;70.83
59829;BME280;45708;51.848;107.620;2023-07-13T22:16:42;94523.34;;;12.32;70.86
59829;BME280;45708;51.848;107.620;2023-07-13T22:21:43;94556.25;;;12.74;70.85
59829;BME280;45708;51.848;107.620;2023-07-13T22:26:44;94564.88;;;14.75;67.69
59829;BME280;45708;51.848;107.620;2023-07-13T22:31:45;94545.75;;;17.14;63.01
59829;BME280;45708;51.848;107.620;2023-07-13T22:36:47;94530.72;;;18.84;59.85
59829;BME280;45708;51.848;107.620;2023-07-13T22:41:48;94516.28;;;20.09;57.84
59829;BME280;45708;51.848;107.620;2023-07-13T22:46:49;94518.84;;;20.79;56.87
59829;BME280;45708;51.848;107.620;2023-07-13T22:51:51;94526.22;;;21.69;55.18
59829;BME280;45708;51.848;107.620;2023-07-13T22:56:52;94525.56;;;22.67;53.52
59829;BME280;45708;51.848;107.620;2023-07-13T23:01:53;94526.50;;;23.64;51.67
59829;BME280;45708;51.848;107.620;2023-07-13T23:06:56;94521.13;;;24.24;50.75
59829;BME280;45708;51.848;107.620;2023-07-13T23:11:57;94525.25;;;24.65;49.41
59829;BME280;45708;51.848;107.620;2023-07-13T23:16:59;94517.44;;;25.19;47.99
59829;BME280;45708;51.848;107.620;2023-07-13T23:22:00;94518.16;;;25.37;47.53
59829;BME280;45708;51.848;107.620;2023-07-13T23:27:01;94529.00;;;26.17;45.80
59829;BME280;45708;51.848;107.620;2023-07-13T23:32:02;94530.38;;;26.77;44.65
59829;BME280;45708;51.848;107.620;2023-07-13T23:37:15;94532.88;;;27.39;46.50
59829;BME280;45708;51.848;107.620;2023-07-13T23:42:16;94512.88;;;27.19;43.07
59829;BME280;45708;51.848;107.620;2023-07-13T23:47:16;94515.06;;;27.75;42.33
59829;BME280;45708;51.848;107.620;2023-07-13T23:52:17;94517.75;;;28.39;41.19
59829;BME280;45708;51.848;107.620;2023-07-13T23:57:18;94510.91;;;29.01;39.47
